Terminal Aerodrome Forecast
Issued by NWS

Home | Current Version | Previous Version | Text Only | Print | Product List | Glossary Off
Versions: 1 2 3 4 5 6 7 8 9 10 11 12 13 14 15 16 17 18 19 20 21 22 23 24 25 26

000
FTUS43 KGRB 261700
TAFMTW
TAF
KMTW 261732Z 2618/2718 18012KT P6SM BKN035 OVC050
     FM262000 18012KT 2SM -SN BKN018 OVC025
     FM270400 12005KT 3SM -SN SCT009 OVC015
     FM270800 07005KT 6SM -SN SCT009 OVC015
     FM271100 04004KT P6SM OVC018
     FM271500 05005KT P6SM SCT025 BKN035=

USA.gov is the U.S. government's official web portal to all federal, state and local government web resources and services.